This is the latest recevied weather packets stored in our database for station/object OM2RC-6. If no packets are shown the sender has not sent any weather packets the latest 10 day(s).
| Time | Temp. | Humidity | Pressure | Rain* | Wind** | Luminosity | Snow |
|---|---|---|---|---|---|---|---|
| 1777717811 | 22.78° C | 39% | 1024.9 hPa | - | - | - | - |
| 1777717510 | 23.33° C | 38% | 1024.9 hPa | - | - | - | - |
| 1777717209 | 25.56° C | 36% | 1024.9 hPa | - | - | - | - |
| 1777716908 | 25.56° C | 36% | 1025 hPa | - | - | - | - |
| 1777716607 | 25.56° C | 36% | 1025 hPa | - | - | - | - |
| 1777716307 | 26.11° C | 36% | 1025.1 hPa | - | - | - | - |
| 1777716006 | 26.11° C | 35% | 1025.1 hPa | - | - | - | - |
| 1777715705 | 25° C | 37% | 1025.2 hPa | - | - | - | - |
| 1777715404 | 23.33° C | 41% | 1025.4 hPa | - | - | - | - |
| 1777715103 | 21.67° C | 42% | 1025.5 hPa | - | - | - | - |
| 1777714802 | 22.22° C | 43% | 1025.4 hPa | - | - | - | - |
| 1777714501 | 22.22° C | 41% | 1025.4 hPa | - | - | - | - |
| 1777714198 | 23.33° C | 39% | 1025.5 hPa | - | - | - | - |
| 1777713897 | 25.56° C | 38% | 1025.5 hPa | - | - | - | - |
| 1777713596 | 23.33° C | 41% | 1025.6 hPa | - | - | - | - |
| 1777713295 | 23.33° C | 41% | 1025.7 hPa | - | - | - | - |
| 1777712994 | 20.56° C | 44% | 1025.8 hPa | - | - | - | - |
| 1777712694 | 21.11° C | 44% | 1025.9 hPa | - | - | - | - |
| 1777712393 | 20.56° C | 44% | 1025.9 hPa | - | - | - | - |
| 1777712092 | 20.56° C | 43% | 1026 hPa | - | - | - | - |
| 1777711791 | 20.56° C | 42% | 1026 hPa | - | - | - | - |
| 1777711488 | 21.11° C | 42% | 1026 hPa | - | - | - | - |
| 1777711187 | 20.56° C | 46% | 1026.1 hPa | - | - | - | - |
| 1777710886 | 20° C | 50% | 1026.2 hPa | - | - | - | - |
| 1777710284 | 22.22° C | 46% | 1026.2 hPa | - | - | - | - |
* Rain since midnight (hover to see other rain measurements)
** Current wind speed in m/s (hover to see current wind gust speed)